createdAt,value
2018-06-05T00:00:37.970Z,6.28
2018-06-05T00:03:06.825Z,6.33
2018-06-05T00:05:35.643Z,6.15
2018-06-05T00:08:04.384Z,6.50
2018-06-05T00:10:33.152Z,6.50
2018-06-05T00:13:01.848Z,6.20
2018-06-05T00:15:31.464Z,6.42
2018-06-05T00:18:00.288Z,6.25
2018-06-05T00:20:29.179Z,6.70
2018-06-05T00:22:57.992Z,6.90
2018-06-05T00:25:26.790Z,7.25
2018-06-05T00:27:55.547Z,6.87
2018-06-05T00:30:25.505Z,7.00
2018-06-05T00:32:54.446Z,6.80
2018-06-05T00:35:23.174Z,6.78
2018-06-05T00:37:52.112Z,6.72
2018-06-05T00:40:21.178Z,6.65
2018-06-05T00:42:50.095Z,6.53
2018-06-05T00:45:19.209Z,6.80
2018-06-05T00:47:47.944Z,6.95
2018-06-05T00:50:16.839Z,6.80
2018-06-05T00:52:45.558Z,6.70
2018-06-05T00:55:14.275Z,6.83
2018-06-05T00:57:42.995Z,7.10
2018-06-05T01:00:11.652Z,7.33
2018-06-05T01:02:40.275Z,7.30
2018-06-05T01:05:08.993Z,7.50
2018-06-05T01:07:37.695Z,7.15
2018-06-05T01:10:06.577Z,7.17
2018-06-05T01:12:35.341Z,7.08
2018-06-05T01:15:04.204Z,7.60
2018-06-05T01:17:32.912Z,7.55
2018-06-05T01:20:01.591Z,7.10
2018-06-05T01:22:30.710Z,7.30
2018-06-05T01:25:00.524Z,7.40
2018-06-05T01:27:29.316Z,7.25
2018-06-05T01:29:58.040Z,7.55
2018-06-05T01:32:26.855Z,7.58
2018-06-05T01:34:55.491Z,7.50
2018-06-05T01:37:24.338Z,7.47
2018-06-05T01:39:53.209Z,7.77
2018-06-05T01:42:22.048Z,7.65
2018-06-05T01:44:51.032Z,7.25
2018-06-05T01:47:19.781Z,7.30
2018-06-05T01:49:48.704Z,8.20
2018-06-05T01:52:17.411Z,7.37
2018-06-05T01:54:46.131Z,7.58
2018-06-05T01:57:14.959Z,7.80
2018-06-05T01:59:43.839Z,7.55
2018-06-05T02:02:12.707Z,8.03
2018-06-05T02:04:41.442Z,7.87
2018-06-05T02:07:10.118Z,7.62
2018-06-05T02:09:39.086Z,8.28
2018-06-05T02:12:07.856Z,7.70
2018-06-05T02:14:36.680Z,8.08
2018-06-05T02:17:05.510Z,8.20
2018-06-05T02:19:34.323Z,7.90
2018-06-05T02:22:03.065Z,7.92
2018-06-05T02:24:31.826Z,8.28
2018-06-05T02:27:00.658Z,7.85
2018-06-05T02:29:29.486Z,7.40
2018-06-05T02:31:58.312Z,8.00
2018-06-05T02:34:27.146Z,8.17
2018-06-05T02:36:57.031Z,8.05
2018-06-05T02:39:26.352Z,7.67
2018-06-05T02:41:55.018Z,8.43
2018-06-05T02:44:23.868Z,8.38
2018-06-05T02:46:52.628Z,8.25
2018-06-05T02:49:21.012Z,8.40
2018-06-05T02:51:49.833Z,8.78
2018-06-05T02:54:18.582Z,8.70
2018-06-05T02:56:47.484Z,8.73
2018-06-05T02:59:16.219Z,8.85
2018-06-05T03:01:44.947Z,8.73
2018-06-05T03:04:14.192Z,8.67
2018-06-05T03:06:42.914Z,8.50
2018-06-05T03:09:11.655Z,8.90
2018-06-05T03:11:40.505Z,8.80
2018-06-05T03:14:09.450Z,15.40
2018-06-05T03:16:38.234Z,8.85
2018-06-05T03:19:07.072Z,9.37
2018-06-05T03:21:35.760Z,9.20
2018-06-05T03:24:04.602Z,9.18
2018-06-05T03:26:33.489Z,8.73
2018-06-05T03:29:02.386Z,9.50
2018-06-05T03:31:31.207Z,10.25
2018-06-05T03:33:59.935Z,9.63
2018-06-05T03:36:28.393Z,10.30
2018-06-05T03:38:57.022Z,9.88
2018-06-05T03:41:25.459Z,9.45
2018-06-05T03:43:54.266Z,9.90
2018-06-05T03:46:23.064Z,9.85
2018-06-05T03:48:52.592Z,9.85
2018-06-05T03:51:21.388Z,10.05
2018-06-05T03:53:50.127Z,11.15
2018-06-05T03:56:19.069Z,11.40
2018-06-05T03:58:47.912Z,10.77
2018-06-05T04:01:16.711Z,10.85
2018-06-05T04:03:45.644Z,11.20
2018-06-05T04:06:14.424Z,11.22
2018-06-05T04:08:42.902Z,10.85
2018-06-05T04:11:11.709Z,11.53
2018-06-05T04:13:40.523Z,11.68
2018-06-05T04:16:09.848Z,12.60
2018-06-05T04:18:38.857Z,13.32
2018-06-05T04:21:07.542Z,13.40
2018-06-05T04:23:36.337Z,13.75
2018-06-05T04:26:05.172Z,14.30
2018-06-05T04:28:33.979Z,13.80
2018-06-05T04:31:02.872Z,14.25
2018-06-05T04:33:31.593Z,12.93
2018-06-05T04:36:00.504Z,13.25
2018-06-05T04:38:29.343Z,12.88
2018-06-05T04:40:58.229Z,12.25
2018-06-05T04:43:27.234Z,11.95
2018-06-05T04:45:56.022Z,11.85
2018-06-05T04:48:24.933Z,12.23
2018-06-05T04:50:53.684Z,12.40
2018-06-05T04:53:22.524Z,13.05
2018-06-05T04:55:51.382Z,13.53
2018-06-05T04:58:20.236Z,13.17
2018-06-05T05:00:50.145Z,13.22
2018-06-05T05:03:19.258Z,13.32
2018-06-05T05:05:47.936Z,13.32
2018-06-05T05:08:16.916Z,14.80
2018-06-05T05:10:45.881Z,14.25
2018-06-05T05:13:15.032Z,15.38
2018-06-05T05:15:44.646Z,15.90
2018-06-05T05:18:13.779Z,15.20
2018-06-05T05:20:42.604Z,15.32
2018-06-05T05:23:11.324Z,16.85
2018-06-05T05:25:40.067Z,17.40
2018-06-05T05:28:08.909Z,16.97
2018-06-05T05:30:37.833Z,17.67
2018-06-05T05:33:08.298Z,18.45
2018-06-05T05:35:37.043Z,16.57
2018-06-05T05:38:05.816Z,17.25
2018-06-05T05:40:34.473Z,18.37
2018-06-05T05:43:03.385Z,18.20
2018-06-05T05:45:32.464Z,19.35
2018-06-05T05:48:01.467Z,19.57
2018-06-05T05:50:30.560Z,18.70
2018-06-05T05:52:59.262Z,18.82
2018-06-05T05:55:27.637Z,20.30
2018-06-05T05:57:56.459Z,16.48
2018-06-05T06:00:25.395Z,19.20
2018-06-05T06:02:54.395Z,21.12
2018-06-05T06:05:23.239Z,18.77
2018-06-05T06:07:52.275Z,19.67
2018-06-05T06:10:21.076Z,18.45
2018-06-05T06:12:52.969Z,18.97
2018-06-05T06:15:22.472Z,19.25
2018-06-05T06:17:51.991Z,17.82
2018-06-05T06:20:21.941Z,18.25
2018-06-05T06:22:51.761Z,18.57
2018-06-05T06:25:21.996Z,18.35
2018-06-05T06:27:51.231Z,19.48
2018-06-05T06:30:28.241Z,16.05
2018-06-05T06:33:08.039Z,16.40
2018-06-05T06:35:37.507Z,16.62
2018-06-05T06:38:06.335Z,15.15
2018-06-05T06:40:35.058Z,14.25
2018-06-05T06:43:04.704Z,14.43
2018-06-05T06:45:33.468Z,14.00
2018-06-05T06:48:02.256Z,14.68
2018-06-05T06:50:31.394Z,14.57
2018-06-05T06:53:00.588Z,14.60
2018-06-05T06:55:29.643Z,15.17
2018-06-05T06:57:58.445Z,15.08
2018-06-05T07:00:28.142Z,15.48
2018-06-05T07:03:00.403Z,15.20
2018-06-05T07:05:30.076Z,14.85
2018-06-05T07:07:59.734Z,15.33
2018-06-05T07:10:28.664Z,14.70
2018-06-05T07:12:57.921Z,15.23
2018-06-05T07:15:27.210Z,15.75
2018-06-05T07:17:56.063Z,16.00
2018-06-05T07:20:25.301Z,18.60
2018-06-05T07:22:54.397Z,18.57
2018-06-05T07:25:23.206Z,18.12
2018-06-05T07:27:52.139Z,19.62
2018-06-05T07:30:22.171Z,23.83
2018-06-05T07:32:50.955Z,23.52
2018-06-05T07:35:19.862Z,24.95
2018-06-05T07:37:48.582Z,25.15
2018-06-05T07:40:17.596Z,29.37
2018-06-05T07:42:46.294Z,26.55
2018-06-05T07:45:16.296Z,26.17
2018-06-05T07:47:45.496Z,26.90
2018-06-05T07:50:14.675Z,26.17
2018-06-05T07:52:43.511Z,24.15
2018-06-05T07:55:12.219Z,19.15
2018-06-05T07:57:41.634Z,14.80
2018-06-05T08:00:10.581Z,14.20
2018-06-05T08:02:40.461Z,13.32
2018-06-05T08:05:12.285Z,13.75
2018-06-05T08:07:41.903Z,13.22
2018-06-05T08:10:11.598Z,14.13
2018-06-05T08:12:40.382Z,13.40
2018-06-05T08:15:10.231Z,14.33
2018-06-05T08:17:47.554Z,13.95
2018-06-05T08:20:19.951Z,14.25
2018-06-05T08:22:53.221Z,13.57
2018-06-05T08:25:22.186Z,13.53
2018-06-05T08:27:50.892Z,13.83
2018-06-05T08:30:19.960Z,13.20
2018-06-05T08:32:48.414Z,12.53
2018-06-05T08:35:17.307Z,13.10
2018-06-05T08:37:45.883Z,13.70
2018-06-05T08:40:14.902Z,13.50
2018-06-05T08:42:43.686Z,12.53
2018-06-05T08:45:12.464Z,11.87
2018-06-05T08:47:41.534Z,11.97
2018-06-05T08:50:10.560Z,12.55
2018-06-05T08:52:39.032Z,12.47
2018-06-05T08:55:08.472Z,27.30
2018-06-05T08:57:37.512Z,12.58
2018-06-05T09:00:06.437Z,11.22
2018-06-05T09:02:35.282Z,11.78
2018-06-05T09:05:04.162Z,11.88
2018-06-05T09:07:32.763Z,11.80
2018-06-05T09:10:02.205Z,12.20
2018-06-05T09:12:30.901Z,13.38
2018-06-05T09:14:59.613Z,11.90
2018-06-05T09:17:28.074Z,12.17
2018-06-05T09:19:56.711Z,13.57
2018-06-05T09:22:25.548Z,12.25
2018-06-05T09:24:54.172Z,12.17
2018-06-05T09:27:22.918Z,12.90
2018-06-05T09:29:51.609Z,12.43
2018-06-05T09:32:20.590Z,11.63
2018-06-05T09:34:49.238Z,12.03
2018-06-05T09:37:19.045Z,11.53
2018-06-05T09:39:48.127Z,11.55
2018-06-05T09:42:17.075Z,11.53
2018-06-05T09:44:46.260Z,11.60
2018-06-05T09:47:14.993Z,12.75
2018-06-05T09:49:43.788Z,13.30
2018-06-05T09:52:12.657Z,12.05
2018-06-05T09:54:41.687Z,10.50
2018-06-05T09:57:10.472Z,12.33
2018-06-05T09:59:39.246Z,12.40
2018-06-05T10:02:40.225Z,14.50
2018-06-05T10:05:10.006Z,12.00
2018-06-05T10:07:42.509Z,12.37
2018-06-05T10:10:13.412Z,12.47
2018-06-05T10:12:42.110Z,11.20
2018-06-05T10:15:11.055Z,16.07
2018-06-05T10:17:40.169Z,13.72
2018-06-05T10:20:08.922Z,13.50
2018-06-05T10:22:40.145Z,11.97
2018-06-05T10:25:08.942Z,12.60
2018-06-05T10:28:11.271Z,11.70
2018-06-05T10:30:53.347Z,11.20
2018-06-05T10:33:45.293Z,11.60
2018-06-05T10:36:23.573Z,11.67
2018-06-05T10:38:52.656Z,10.50
2018-06-05T10:41:22.292Z,11.28
2018-06-05T10:43:52.593Z,11.17
2018-06-05T10:46:24.278Z,11.20
2018-06-05T10:48:53.754Z,11.70
2018-06-05T10:51:23.038Z,11.05
2018-06-05T10:53:53.695Z,11.00
2018-06-05T10:56:23.526Z,10.55
2018-06-05T10:58:52.489Z,10.30
2018-06-05T11:01:21.239Z,8.70
2018-06-05T11:03:50.693Z,8.98
2018-06-05T11:06:19.760Z,10.10
2018-06-05T11:08:48.578Z,9.48
2018-06-05T11:11:17.416Z,9.43
2018-06-05T11:13:46.329Z,7.70
2018-06-05T11:16:15.013Z,7.73
2018-06-05T11:18:43.722Z,6.00
2018-06-05T11:21:18.193Z,6.60
2018-06-05T11:23:47.194Z,5.45
2018-06-05T11:26:16.697Z,6.70
2018-06-05T11:28:45.585Z,5.70
2018-06-05T11:31:14.542Z,5.58
2018-06-05T11:33:43.534Z,7.23
2018-06-05T11:36:12.273Z,8.88
2018-06-05T11:38:41.215Z,10.20
2018-06-05T11:41:09.969Z,11.05
2018-06-05T11:43:39.324Z,10.70
2018-06-05T11:46:08.031Z,10.85
2018-06-05T11:48:37.087Z,11.45
2018-06-05T11:51:16.444Z,11.65
2018-06-05T11:53:45.220Z,11.97
2018-06-05T11:56:14.455Z,13.53
2018-06-05T11:58:43.550Z,12.37
2018-06-05T12:01:12.725Z,14.37
2018-06-05T12:03:42.280Z,14.18
2018-06-05T12:06:10.888Z,14.98
2018-06-05T12:08:39.844Z,14.47
2018-06-05T12:11:08.718Z,14.25
2018-06-05T12:13:38.228Z,13.58
2018-06-05T12:16:07.217Z,14.33
2018-06-05T12:18:36.255Z,14.00
2018-06-05T12:21:07.612Z,15.60
2018-06-05T12:23:36.596Z,13.22
2018-06-05T12:26:05.289Z,13.57
2018-06-05T12:28:34.747Z,15.70
2018-06-05T12:31:04.171Z,14.70
2018-06-05T12:33:32.934Z,15.10
2018-06-05T12:36:02.948Z,14.80
2018-06-05T12:38:32.331Z,16.07
2018-06-05T12:41:01.781Z,14.47
2018-06-05T12:43:50.597Z,15.63
2018-06-05T12:46:27.673Z,15.20
2018-06-05T12:49:05.636Z,14.90
2018-06-05T12:51:34.442Z,13.65
2018-06-05T12:54:03.550Z,12.90
2018-06-05T12:56:32.657Z,12.98
2018-06-05T13:02:06.518Z,12.17
2018-06-05T13:04:36.735Z,12.53
2018-06-05T13:07:06.247Z,12.03
2018-06-05T13:09:35.988Z,11.97
2018-06-05T13:12:05.058Z,12.50
2018-06-05T13:14:34.254Z,13.53
2018-06-05T13:17:03.395Z,13.48
2018-06-05T13:19:34.938Z,14.15
2018-06-05T13:22:05.094Z,12.78
2018-06-05T13:24:34.756Z,12.63
2018-06-05T13:27:05.639Z,13.48
2018-06-05T13:29:34.841Z,12.05
2018-06-05T13:32:04.270Z,12.25
2018-06-05T13:34:33.049Z,12.70
2018-06-05T13:37:07.344Z,12.37
2018-06-05T13:39:43.972Z,12.82
2018-06-05T13:42:13.666Z,12.20
2018-06-05T13:44:43.154Z,12.60
2018-06-05T13:47:19.208Z,11.57
2018-06-05T13:49:49.200Z,12.57
2018-06-05T13:52:18.276Z,11.53
2018-06-05T13:54:47.339Z,10.13
2018-06-05T13:57:16.425Z,10.00
2018-06-05T13:59:45.478Z,11.75
2018-06-05T14:02:17.869Z,10.45
2018-06-05T14:04:47.770Z,8.85
2018-06-05T14:07:16.545Z,10.48
2018-06-05T14:09:45.643Z,10.00
2018-06-05T14:12:15.280Z,9.35
2018-06-05T14:14:44.132Z,9.05
2018-06-05T14:17:12.982Z,8.68
2018-06-05T14:19:41.893Z,7.97
2018-06-05T14:22:10.886Z,6.75
2018-06-05T14:24:40.242Z,6.80
2018-06-05T14:27:09.093Z,6.27
2018-06-05T14:29:37.986Z,6.95
2018-06-05T14:32:06.860Z,6.70
2018-06-05T14:34:35.835Z,7.33
2018-06-05T14:37:04.857Z,7.33
2018-06-05T14:41:02.932Z,7.12
2018-06-05T14:43:32.030Z,6.50
2018-06-05T14:46:08.258Z,7.10
2018-06-05T14:48:44.077Z,6.70
2018-06-05T14:51:13.356Z,6.28
2018-06-05T14:53:42.490Z,6.62
2018-06-05T14:56:12.223Z,6.80
2018-06-05T14:58:49.494Z,6.95
2018-06-05T15:01:25.268Z,7.08
2018-06-05T15:04:00.819Z,7.40
2018-06-05T15:06:29.899Z,7.30
2018-06-05T15:08:58.951Z,7.90
2018-06-05T15:11:27.706Z,8.18
2018-06-05T15:13:56.539Z,8.30
2018-06-05T15:16:25.411Z,7.83
2018-06-05T15:18:54.435Z,8.23
2018-06-05T15:21:23.519Z,7.97
2018-06-05T15:23:52.473Z,9.10
2018-06-05T15:26:21.356Z,8.15
2018-06-05T15:28:50.898Z,7.87
2018-06-05T15:31:19.916Z,7.80
2018-06-05T15:33:48.840Z,7.90
2018-06-05T15:36:17.782Z,7.80
2018-06-05T15:38:47.579Z,8.05
2018-06-05T15:41:16.641Z,8.43
2018-06-05T15:43:46.158Z,8.75
2018-06-05T15:46:15.099Z,8.40
2018-06-05T15:48:43.936Z,8.98
2018-06-05T15:51:17.681Z,10.10
2018-06-05T15:53:46.652Z,11.20
2018-06-05T15:56:15.489Z,8.80
2018-06-05T15:58:44.274Z,8.53
2018-06-05T16:01:13.201Z,8.40
2018-06-05T16:03:42.065Z,9.13
2018-06-05T16:06:10.850Z,8.90
2018-06-05T16:08:39.662Z,8.20
2018-06-05T16:11:08.724Z,8.60
2018-06-05T16:13:37.544Z,8.05
2018-06-05T16:16:07.014Z,8.85
2018-06-05T16:18:35.986Z,9.30
2018-06-05T16:21:05.504Z,9.40
2018-06-05T16:23:34.915Z,9.55
2018-06-05T16:26:03.897Z,9.65
2018-06-05T16:28:32.949Z,10.90
2018-06-05T16:31:01.819Z,12.03
2018-06-05T16:33:30.530Z,12.10
2018-06-05T16:35:59.483Z,11.30
2018-06-05T16:38:28.209Z,10.75
2018-06-05T16:40:57.928Z,11.48
2018-06-05T16:43:26.766Z,11.12
2018-06-05T16:45:55.697Z,10.72
2018-06-05T16:48:25.428Z,11.12
2018-06-05T16:50:54.197Z,11.65
2018-06-05T16:53:23.042Z,12.95
2018-06-05T16:55:51.954Z,11.95
2018-06-05T16:58:21.691Z,12.05
2018-06-05T17:00:50.502Z,12.40
2018-06-05T17:03:19.260Z,12.43
2018-06-05T17:05:48.114Z,12.93
2018-06-05T17:08:21.971Z,12.13
2018-06-05T17:10:50.891Z,11.47
2018-06-05T17:13:19.718Z,11.38
2018-06-05T17:15:48.467Z,10.63
2018-06-05T17:18:17.259Z,10.80
2018-06-05T17:20:46.455Z,11.22
2018-06-05T17:23:15.254Z,11.13
2018-06-05T17:25:44.541Z,10.38
2018-06-05T17:28:13.420Z,10.15
2018-06-05T17:30:43.559Z,11.15
2018-06-05T17:33:12.678Z,10.23
2018-06-05T17:35:41.457Z,11.40
2018-06-05T17:38:10.287Z,12.70
2018-06-05T17:40:39.044Z,11.47
2018-06-05T17:43:07.973Z,10.82
2018-06-05T17:45:36.886Z,10.65
2018-06-05T17:48:05.961Z,11.33
2018-06-05T17:50:34.986Z,12.90
2018-06-05T17:53:04.087Z,12.25
2018-06-05T17:55:32.959Z,14.78
2018-06-05T17:58:02.098Z,13.20
2018-06-05T18:00:32.102Z,13.28
2018-06-05T18:03:00.964Z,10.72
2018-06-05T18:05:29.709Z,10.37
2018-06-05T18:07:58.515Z,12.90
2018-06-05T18:10:27.188Z,12.83
2018-06-05T18:12:56.029Z,11.30
2018-06-05T18:15:24.973Z,10.93
2018-06-05T18:17:53.943Z,10.48
2018-06-05T18:20:22.870Z,11.10
2018-06-05T18:22:51.623Z,11.75
2018-06-05T18:25:20.462Z,11.45
2018-06-05T18:27:49.380Z,10.38
2018-06-05T18:30:18.481Z,11.67
2018-06-05T18:32:47.326Z,9.98
2018-06-05T18:35:16.039Z,11.40
2018-06-05T18:37:44.737Z,10.20
2018-06-05T18:40:13.454Z,10.68
2018-06-05T18:42:42.297Z,9.58
2018-06-05T18:45:11.040Z,9.78
2018-06-05T18:47:39.790Z,11.30
2018-06-05T18:50:08.744Z,9.18
2018-06-05T18:52:37.553Z,8.73
2018-06-05T18:55:06.847Z,9.45
2018-06-05T18:57:35.923Z,9.25
2018-06-05T19:00:05.347Z,9.05
2018-06-05T19:02:34.311Z,9.60
2018-06-05T19:05:03.009Z,9.70
2018-06-05T19:07:32.018Z,9.93
2018-06-05T19:10:01.718Z,9.90
2018-06-05T19:12:30.646Z,9.93
2018-06-05T19:14:59.624Z,9.60
2018-06-05T19:17:28.353Z,9.30
2018-06-05T19:21:26.476Z,33.42
2018-06-05T19:24:02.286Z,27.07
2018-06-05T19:26:37.407Z,9.88
2018-06-05T19:29:07.975Z,10.40
2018-06-05T19:31:36.841Z,9.85
2018-06-05T19:34:05.565Z,9.68
2018-06-05T19:36:34.383Z,10.53
2018-06-05T19:39:03.318Z,11.35
2018-06-05T19:41:32.281Z,10.93
2018-06-05T19:44:01.343Z,10.97
2018-06-05T19:46:30.685Z,10.60
2018-06-05T19:48:59.464Z,11.10
2018-06-05T19:51:34.581Z,11.57
2018-06-05T19:54:10.477Z,12.78
2018-06-05T19:56:39.641Z,12.53
2018-06-05T19:59:08.407Z,12.20
2018-06-05T20:01:37.421Z,11.88
2018-06-05T20:04:07.150Z,13.45
2018-06-05T20:06:36.014Z,13.37
2018-06-05T20:09:07.182Z,16.48
2018-06-05T20:11:35.930Z,17.90
2018-06-05T20:14:04.784Z,14.28
2018-06-05T20:16:34.580Z,21.90
2018-06-05T20:19:03.412Z,19.62
2018-06-05T20:21:32.123Z,18.70
2018-06-05T20:24:01.260Z,19.35
2018-06-05T20:26:30.491Z,17.90
2018-06-05T20:29:00.143Z,16.83
2018-06-05T20:31:29.635Z,19.20
2018-06-05T20:33:58.627Z,21.95
2018-06-05T20:36:27.375Z,19.67
2018-06-05T20:38:56.102Z,18.92
2018-06-05T20:41:25.423Z,18.73
2018-06-05T20:43:54.851Z,17.17
2018-06-05T20:46:23.559Z,18.37
2018-06-05T20:48:53.284Z,17.80
2018-06-05T20:51:21.990Z,18.25
2018-06-05T20:53:50.716Z,16.90
2018-06-05T20:56:19.824Z,17.30
2018-06-05T20:58:48.636Z,17.73
2018-06-05T21:01:17.579Z,16.73
2018-06-05T21:03:46.328Z,17.27
2018-06-05T21:06:15.225Z,18.25
2018-06-05T21:08:43.922Z,21.37
2018-06-05T21:11:12.771Z,18.42
2018-06-05T21:13:41.459Z,18.23
2018-06-05T21:16:10.762Z,19.27
2018-06-05T21:18:39.524Z,18.32
2018-06-05T21:21:08.976Z,18.67
2018-06-05T21:23:38.476Z,15.90
2018-06-05T21:26:07.720Z,16.70
2018-06-05T21:28:36.968Z,16.67
2018-06-05T21:31:05.926Z,17.42
2018-06-05T21:33:34.864Z,16.73
2018-06-05T21:36:03.675Z,18.40
2018-06-05T21:38:32.512Z,18.05
2018-06-05T21:41:01.247Z,16.50
2018-06-05T21:43:30.090Z,17.48
2018-06-05T21:45:58.878Z,17.00
2018-06-05T21:48:27.873Z,16.62
2018-06-05T21:50:56.825Z,16.07
2018-06-05T21:53:25.624Z,16.50
2018-06-05T21:55:54.692Z,16.32
2018-06-05T21:58:23.397Z,15.55
2018-06-05T22:00:52.235Z,15.32
2018-06-05T22:03:21.786Z,14.53
2018-06-05T22:05:50.463Z,13.70
2018-06-05T22:08:19.226Z,14.17
2018-06-05T22:10:48.062Z,14.20
2018-06-05T22:13:16.867Z,14.33
2018-06-05T22:15:45.609Z,14.63
2018-06-05T22:18:14.274Z,14.07
2018-06-05T22:20:43.163Z,14.83
2018-06-05T22:23:12.116Z,15.43
2018-06-05T22:25:40.863Z,15.28
2018-06-05T22:28:09.746Z,15.10
2018-06-05T22:30:38.620Z,15.63
2018-06-05T22:33:07.327Z,16.30
2018-06-05T22:35:36.173Z,16.43
2018-06-05T22:38:05.736Z,15.32
2018-06-05T22:40:34.541Z,15.90
2018-06-05T22:43:03.193Z,15.37
2018-06-05T22:45:32.141Z,15.70
2018-06-05T22:48:00.924Z,15.78
2018-06-05T22:50:30.386Z,15.30
2018-06-05T22:52:59.224Z,14.75
2018-06-05T22:55:28.620Z,15.20
2018-06-05T22:57:57.296Z,14.70
2018-06-05T23:00:32.323Z,15.15
2018-06-05T23:03:01.290Z,15.17
2018-06-05T23:05:30.161Z,15.75
2018-06-05T23:07:59.034Z,16.40
2018-06-05T23:10:27.908Z,15.93
2018-06-05T23:12:56.695Z,15.70
2018-06-05T23:15:26.102Z,15.70
2018-06-05T23:17:54.961Z,15.58
2018-06-05T23:20:23.614Z,15.77
2018-06-05T23:22:52.234Z,16.45
2018-06-05T23:25:21.030Z,16.05
2018-06-05T23:27:49.861Z,16.12
2018-06-05T23:30:18.688Z,15.35
2018-06-05T23:32:47.384Z,15.58
2018-06-05T23:35:16.079Z,14.87
2018-06-05T23:37:44.774Z,14.03
2018-06-05T23:40:13.485Z,14.70
2018-06-05T23:42:42.367Z,15.45
2018-06-05T23:45:11.037Z,16.85
2018-06-05T23:47:39.760Z,15.40
2018-06-05T23:50:08.624Z,15.48
2018-06-05T23:52:37.371Z,16.55
2018-06-05T23:55:06.395Z,16.00
2018-06-05T23:57:35.072Z,15.35
